sensor_id;sensor_type;location;lat;lon;timestamp;P1;durP1;ratioP1;P2;durP2;ratioP2
50555;SDS011;36508;52.512;13.450;2024-03-22T00:01:15;15.40;;;13.93;;
50555;SDS011;36508;52.512;13.450;2024-03-22T00:03:41;16.93;;;15.23;;
50555;SDS011;36508;52.512;13.450;2024-03-22T00:06:06;16.67;;;15.27;;
50555;SDS011;36508;52.512;13.450;2024-03-22T00:08:32;17.60;;;16.00;;
50555;SDS011;36508;52.512;13.450;2024-03-22T00:10:57;15.23;;;13.83;;
50555;SDS011;36508;52.512;13.450;2024-03-22T00:13:23;16.53;;;14.93;;
50555;SDS011;36508;52.512;13.450;2024-03-22T00:15:49;14.50;;;13.30;;
50555;SDS011;36508;52.512;13.450;2024-03-22T00:18:14;16.43;;;15.03;;
50555;SDS011;36508;52.512;13.450;2024-03-22T00:20:40;14.87;;;13.57;;
50555;SDS011;36508;52.512;13.450;2024-03-22T00:23:06;16.10;;;14.57;;
50555;SDS011;36508;52.512;13.450;2024-03-22T00:25:31;15.50;;;14.10;;
50555;SDS011;36508;52.512;13.450;2024-03-22T00:27:57;16.20;;;14.90;;
50555;SDS011;36508;52.512;13.450;2024-03-22T00:30:22;16.50;;;14.10;;
50555;SDS011;36508;52.512;13.450;2024-03-22T00:32:48;16.43;;;14.73;;
50555;SDS011;36508;52.512;13.450;2024-03-22T00:35:14;15.40;;;13.93;;
50555;SDS011;36508;52.512;13.450;2024-03-22T00:37:39;16.27;;;14.57;;
50555;SDS011;36508;52.512;13.450;2024-03-22T00:40:05;16.43;;;15.00;;
50555;SDS011;36508;52.512;13.450;2024-03-22T00:42:31;17.20;;;15.70;;
50555;SDS011;36508;52.512;13.450;2024-03-22T00:44:56;18.30;;;16.63;;
50555;SDS011;36508;52.512;13.450;2024-03-22T00:47:22;18.40;;;16.70;;
50555;SDS011;36508;52.512;13.450;2024-03-22T00:49:48;15.70;;;14.13;;
50555;SDS011;36508;52.512;13.450;2024-03-22T00:54:44;16.50;;;15.00;;
50555;SDS011;36508;52.512;13.450;2024-03-22T00:57:09;16.70;;;14.97;;
50555;SDS011;36508;52.512;13.450;2024-03-22T00:59:35;18.50;;;16.70;;
50555;SDS011;36508;52.512;13.450;2024-03-22T01:02:00;18.17;;;16.37;;
50555;SDS011;36508;52.512;13.450;2024-03-22T01:04:26;16.30;;;14.77;;
50555;SDS011;36508;52.512;13.450;2024-03-22T01:06:51;16.77;;;15.27;;
50555;SDS011;36508;52.512;13.450;2024-03-22T01:09:17;16.43;;;14.80;;
50555;SDS011;36508;52.512;13.450;2024-03-22T01:11:44;16.93;;;15.30;;
50555;SDS011;36508;52.512;13.450;2024-03-22T01:14:13;17.17;;;15.60;;
50555;SDS011;36508;52.512;13.450;2024-03-22T01:16:38;16.37;;;14.97;;
50555;SDS011;36508;52.512;13.450;2024-03-22T01:19:04;15.27;;;13.67;;
50555;SDS011;36508;52.512;13.450;2024-03-22T01:21:30;18.60;;;17.10;;
50555;SDS011;36508;52.512;13.450;2024-03-22T01:23:55;16.70;;;15.17;;
50555;SDS011;36508;52.512;13.450;2024-03-22T01:26:21;17.97;;;16.17;;
50555;SDS011;36508;52.512;13.450;2024-03-22T01:28:46;19.27;;;17.67;;
50555;SDS011;36508;52.512;13.450;2024-03-22T01:31:12;16.93;;;15.43;;
50555;SDS011;36508;52.512;13.450;2024-03-22T01:33:38;19.10;;;17.33;;
50555;SDS011;36508;52.512;13.450;2024-03-22T01:36:03;16.33;;;14.63;;
50555;SDS011;36508;52.512;13.450;2024-03-22T01:38:30;16.37;;;14.83;;
50555;SDS011;36508;52.512;13.450;2024-03-22T01:40:56;19.73;;;17.63;;
50555;SDS011;36508;52.512;13.450;2024-03-22T01:43:22;17.43;;;15.60;;
50555;SDS011;36508;52.512;13.450;2024-03-22T01:45:47;19.60;;;17.63;;
50555;SDS011;36508;52.512;13.450;2024-03-22T01:48:13;17.60;;;15.80;;
50555;SDS011;36508;52.512;13.450;2024-03-22T01:50:39;18.50;;;16.80;;
50555;SDS011;36508;52.512;13.450;2024-03-22T01:53:05;18.33;;;16.53;;
50555;SDS011;36508;52.512;13.450;2024-03-22T01:55:31;17.70;;;16.00;;
50555;SDS011;36508;52.512;13.450;2024-03-22T01:57:57;19.83;;;17.87;;
50555;SDS011;36508;52.512;13.450;2024-03-22T02:00:23;19.87;;;17.43;;
50555;SDS011;36508;52.512;13.450;2024-03-22T02:02:48;18.20;;;16.40;;
50555;SDS011;36508;52.512;13.450;2024-03-22T02:05:14;20.63;;;17.13;;
50555;SDS011;36508;52.512;13.450;2024-03-22T02:07:44;19.77;;;17.60;;
50555;SDS011;36508;52.512;13.450;2024-03-22T02:10:10;19.33;;;17.23;;
50555;SDS011;36508;52.512;13.450;2024-03-22T02:12:37;18.80;;;16.87;;
50555;SDS011;36508;52.512;13.450;2024-03-22T02:15:03;22.33;;;17.70;;
50555;SDS011;36508;52.512;13.450;2024-03-22T02:17:29;17.07;;;15.40;;
50555;SDS011;36508;52.512;13.450;2024-03-22T02:19:54;18.67;;;16.77;;
50555;SDS011;36508;52.512;13.450;2024-03-22T02:22:20;18.33;;;16.37;;
50555;SDS011;36508;52.512;13.450;2024-03-22T02:27:13;17.90;;;15.90;;
50555;SDS011;36508;52.512;13.450;2024-03-22T02:29:39;19.20;;;17.33;;
50555;SDS011;36508;52.512;13.450;2024-03-22T02:32:05;17.70;;;15.90;;
50555;SDS011;36508;52.512;13.450;2024-03-22T02:34:31;18.80;;;17.00;;
50555;SDS011;36508;52.512;13.450;2024-03-22T02:36:56;18.57;;;16.77;;
50555;SDS011;36508;52.512;13.450;2024-03-22T02:39:22;16.57;;;14.93;;
50555;SDS011;36508;52.512;13.450;2024-03-22T02:41:47;18.83;;;15.57;;
50555;SDS011;36508;52.512;13.450;2024-03-22T02:44:13;18.83;;;16.90;;
50555;SDS011;36508;52.512;13.450;2024-03-22T02:46:38;18.60;;;14.77;;
50555;SDS011;36508;52.512;13.450;2024-03-22T02:49:04;18.73;;;14.60;;
50555;SDS011;36508;52.512;13.450;2024-03-22T02:51:29;18.30;;;15.87;;
50555;SDS011;36508;52.512;13.450;2024-03-22T02:53:55;16.07;;;14.37;;
50555;SDS011;36508;52.512;13.450;2024-03-22T02:56:20;17.70;;;15.83;;
50555;SDS011;36508;52.512;13.450;2024-03-22T02:58:46;20.97;;;16.33;;
50555;SDS011;36508;52.512;13.450;2024-03-22T03:01:13;20.30;;;18.20;;
50555;SDS011;36508;52.512;13.450;2024-03-22T03:03:39;16.90;;;14.30;;
50555;SDS011;36508;52.512;13.450;2024-03-22T03:06:04;18.73;;;16.70;;
50555;SDS011;36508;52.512;13.450;2024-03-22T03:08:30;17.03;;;15.27;;
50555;SDS011;36508;52.512;13.450;2024-03-22T03:10:56;18.87;;;16.40;;
50555;SDS011;36508;52.512;13.450;2024-03-22T03:13:21;19.13;;;15.90;;
50555;SDS011;36508;52.512;13.450;2024-03-22T03:15:47;17.20;;;15.50;;
50555;SDS011;36508;52.512;13.450;2024-03-22T03:18:12;19.20;;;15.97;;
50555;SDS011;36508;52.512;13.450;2024-03-22T03:20:38;16.93;;;15.10;;
50555;SDS011;36508;52.512;13.450;2024-03-22T03:23:03;16.50;;;14.80;;
50555;SDS011;36508;52.512;13.450;2024-03-22T03:25:29;19.57;;;15.27;;
50555;SDS011;36508;52.512;13.450;2024-03-22T03:27:55;18.17;;;15.87;;
50555;SDS011;36508;52.512;13.450;2024-03-22T03:30:20;15.63;;;13.97;;
50555;SDS011;36508;52.512;13.450;2024-03-22T03:32:46;16.57;;;14.80;;
50555;SDS011;36508;52.512;13.450;2024-03-22T03:35:11;14.73;;;13.23;;
50555;SDS011;36508;52.512;13.450;2024-03-22T03:37:37;16.70;;;14.90;;
50555;SDS011;36508;52.512;13.450;2024-03-22T03:40:02;18.87;;;15.00;;
50555;SDS011;36508;52.512;13.450;2024-03-22T03:42:29;20.40;;;17.40;;
50555;SDS011;36508;52.512;13.450;2024-03-22T03:44:55;17.70;;;13.67;;
50555;SDS011;36508;52.512;13.450;2024-03-22T03:47:20;18.17;;;14.80;;
50555;SDS011;36508;52.512;13.450;2024-03-22T03:49:46;17.83;;;13.87;;
50555;SDS011;36508;52.512;13.450;2024-03-22T03:52:11;13.60;;;12.30;;
50555;SDS011;36508;52.512;13.450;2024-03-22T03:54:37;17.50;;;15.37;;
50555;SDS011;36508;52.512;13.450;2024-03-22T03:57:03;15.90;;;13.90;;
50555;SDS011;36508;52.512;13.450;2024-03-22T03:59:28;14.33;;;12.60;;
50555;SDS011;36508;52.512;13.450;2024-03-22T04:01:54;14.83;;;13.03;;
50555;SDS011;36508;52.512;13.450;2024-03-22T04:04:20;15.43;;;12.90;;
50555;SDS011;36508;52.512;13.450;2024-03-22T04:06:45;18.67;;;14.40;;
50555;SDS011;36508;52.512;13.450;2024-03-22T04:09:11;13.37;;;12.07;;
50555;SDS011;36508;52.512;13.450;2024-03-22T04:11:37;15.20;;;13.60;;
50555;SDS011;36508;52.512;13.450;2024-03-22T04:14:03;17.60;;;13.80;;
50555;SDS011;36508;52.512;13.450;2024-03-22T04:16:30;17.27;;;15.43;;
50555;SDS011;36508;52.512;13.450;2024-03-22T04:18:56;18.47;;;14.37;;
50555;SDS011;36508;52.512;13.450;2024-03-22T04:21:21;16.50;;;14.50;;
50555;SDS011;36508;52.512;13.450;2024-03-22T04:23:47;15.60;;;14.00;;
50555;SDS011;36508;52.512;13.450;2024-03-22T04:26:13;19.83;;;13.50;;
50555;SDS011;36508;52.512;13.450;2024-03-22T04:28:38;15.73;;;14.10;;
50555;SDS011;36508;52.512;13.450;2024-03-22T04:31:04;18.07;;;13.70;;
50555;SDS011;36508;52.512;13.450;2024-03-22T04:33:33;17.53;;;15.73;;
50555;SDS011;36508;52.512;13.450;2024-03-22T04:36:00;21.23;;;13.53;;
50555;SDS011;36508;52.512;13.450;2024-03-22T04:38:26;15.97;;;14.27;;
50555;SDS011;36508;52.512;13.450;2024-03-22T04:40:55;15.20;;;13.10;;
50555;SDS011;36508;52.512;13.450;2024-03-22T04:43:21;15.07;;;13.47;;
50555;SDS011;36508;52.512;13.450;2024-03-22T04:45:53;17.20;;;14.23;;
50555;SDS011;36508;52.512;13.450;2024-03-22T04:48:19;15.87;;;13.17;;
50555;SDS011;36508;52.512;13.450;2024-03-22T04:50:46;15.50;;;13.33;;
50555;SDS011;36508;52.512;13.450;2024-03-22T04:53:13;14.03;;;12.73;;
50555;SDS011;36508;52.512;13.450;2024-03-22T04:55:38;16.57;;;13.23;;
50555;SDS011;36508;52.512;13.450;2024-03-22T04:58:09;16.27;;;14.47;;
50555;SDS011;36508;52.512;13.450;2024-03-22T05:00:39;18.50;;;15.00;;
50555;SDS011;36508;52.512;13.450;2024-03-22T05:03:04;14.97;;;12.97;;
50555;SDS011;36508;52.512;13.450;2024-03-22T05:05:30;13.63;;;11.97;;
50555;SDS011;36508;52.512;13.450;2024-03-22T05:07:55;14.93;;;12.90;;
50555;SDS011;36508;52.512;13.450;2024-03-22T05:10:21;15.97;;;14.33;;
50555;SDS011;36508;52.512;13.450;2024-03-22T05:12:47;16.03;;;14.30;;
50555;SDS011;36508;52.512;13.450;2024-03-22T05:15:13;16.70;;;14.07;;
50555;SDS011;36508;52.512;13.450;2024-03-22T05:17:38;17.17;;;12.77;;
50555;SDS011;36508;52.512;13.450;2024-03-22T05:20:06;16.23;;;14.20;;
50555;SDS011;36508;52.512;13.450;2024-03-22T05:22:36;16.47;;;14.23;;
50555;SDS011;36508;52.512;13.450;2024-03-22T05:25:02;16.03;;;13.87;;
50555;SDS011;36508;52.512;13.450;2024-03-22T05:27:28;17.07;;;15.37;;
50555;SDS011;36508;52.512;13.450;2024-03-22T05:29:55;16.47;;;14.47;;
50555;SDS011;36508;52.512;13.450;2024-03-22T05:32:21;18.67;;;14.00;;
50555;SDS011;36508;52.512;13.450;2024-03-22T05:34:46;16.07;;;14.40;;
50555;SDS011;36508;52.512;13.450;2024-03-22T05:37:12;15.80;;;13.53;;
50555;SDS011;36508;52.512;13.450;2024-03-22T05:39:37;17.57;;;15.67;;
50555;SDS011;36508;52.512;13.450;2024-03-22T05:42:04;14.90;;;12.30;;
50555;SDS011;36508;52.512;13.450;2024-03-22T05:44:30;19.10;;;15.73;;
50555;SDS011;36508;52.512;13.450;2024-03-22T05:46:55;19.50;;;17.00;;
50555;SDS011;36508;52.512;13.450;2024-03-22T05:49:21;17.30;;;13.93;;
50555;SDS011;36508;52.512;13.450;2024-03-22T05:51:46;19.10;;;15.47;;
50555;SDS011;36508;52.512;13.450;2024-03-22T05:54:12;16.27;;;14.57;;
50555;SDS011;36508;52.512;13.450;2024-03-22T05:56:38;18.37;;;15.47;;
50555;SDS011;36508;52.512;13.450;2024-03-22T05:59:03;17.77;;;15.90;;
50555;SDS011;36508;52.512;13.450;2024-03-22T06:01:29;15.90;;;14.37;;
50555;SDS011;36508;52.512;13.450;2024-03-22T06:03:54;17.30;;;15.60;;
50555;SDS011;36508;52.512;13.450;2024-03-22T06:06:20;20.50;;;13.97;;
50555;SDS011;36508;52.512;13.450;2024-03-22T06:08:50;17.63;;;13.93;;
50555;SDS011;36508;52.512;13.450;2024-03-22T06:11:17;15.73;;;14.03;;
50555;SDS011;36508;52.512;13.450;2024-03-22T06:13:43;19.00;;;15.87;;
50555;SDS011;36508;52.512;13.450;2024-03-22T06:16:09;15.73;;;14.03;;
50555;SDS011;36508;52.512;13.450;2024-03-22T06:18:34;14.57;;;12.80;;
50555;SDS011;36508;52.512;13.450;2024-03-22T06:21:00;18.57;;;15.70;;
50555;SDS011;36508;52.512;13.450;2024-03-22T06:23:25;16.97;;;15.27;;
50555;SDS011;36508;52.512;13.450;2024-03-22T06:25:54;18.13;;;16.30;;
50555;SDS011;36508;52.512;13.450;2024-03-22T06:28:25;17.50;;;15.20;;
50555;SDS011;36508;52.512;13.450;2024-03-22T06:30:53;23.90;;;14.60;;
50555;SDS011;36508;52.512;13.450;2024-03-22T06:33:19;14.73;;;13.23;;
50555;SDS011;36508;52.512;13.450;2024-03-22T06:35:45;14.93;;;13.37;;
50555;SDS011;36508;52.512;13.450;2024-03-22T06:38:11;15.33;;;13.83;;
50555;SDS011;36508;52.512;13.450;2024-03-22T06:40:37;14.93;;;13.23;;
50555;SDS011;36508;52.512;13.450;2024-03-22T06:43:02;16.60;;;14.90;;
50555;SDS011;36508;52.512;13.450;2024-03-22T06:45:28;15.87;;;14.27;;
50555;SDS011;36508;52.512;13.450;2024-03-22T06:47:57;20.90;;;14.57;;
50555;SDS011;36508;52.512;13.450;2024-03-22T06:50:22;16.50;;;14.80;;
50555;SDS011;36508;52.512;13.450;2024-03-22T06:52:52;18.87;;;16.83;;
50555;SDS011;36508;52.512;13.450;2024-03-22T06:55:18;16.27;;;14.57;;
50555;SDS011;36508;52.512;13.450;2024-03-22T06:57:48;16.80;;;13.17;;
50555;SDS011;36508;52.512;13.450;2024-03-22T07:00:17;14.93;;;13.43;;
50555;SDS011;36508;52.512;13.450;2024-03-22T07:02:44;16.53;;;14.13;;
50555;SDS011;36508;52.512;13.450;2024-03-22T07:05:10;15.70;;;14.10;;
50555;SDS011;36508;52.512;13.450;2024-03-22T07:07:36;19.80;;;17.47;;
50555;SDS011;36508;52.512;13.450;2024-03-22T07:10:02;18.57;;;15.20;;
50555;SDS011;36508;52.512;13.450;2024-03-22T07:12:30;17.77;;;16.17;;
50555;SDS011;36508;52.512;13.450;2024-03-22T07:15:04;22.57;;;20.17;;
50555;SDS011;36508;52.512;13.450;2024-03-22T07:17:30;19.47;;;17.47;;
50555;SDS011;36508;52.512;13.450;2024-03-22T07:19:56;18.30;;;16.50;;
50555;SDS011;36508;52.512;13.450;2024-03-22T07:22:22;18.70;;;16.70;;
50555;SDS011;36508;52.512;13.450;2024-03-22T07:24:47;15.93;;;14.30;;
50555;SDS011;36508;52.512;13.450;2024-03-22T07:27:14;18.13;;;16.20;;
50555;SDS011;36508;52.512;13.450;2024-03-22T07:29:40;17.40;;;14.60;;
50555;SDS011;36508;52.512;13.450;2024-03-22T07:32:06;17.97;;;16.17;;
50555;SDS011;36508;52.512;13.450;2024-03-22T07:34:32;17.87;;;16.03;;
50555;SDS011;36508;52.512;13.450;2024-03-22T07:36:57;19.37;;;17.37;;
50555;SDS011;36508;52.512;13.450;2024-03-22T07:39:23;19.63;;;17.53;;
50555;SDS011;36508;52.512;13.450;2024-03-22T07:41:49;20.23;;;17.80;;
50555;SDS011;36508;52.512;13.450;2024-03-22T07:44:15;20.50;;;17.27;;
50555;SDS011;36508;52.512;13.450;2024-03-22T07:46:42;20.40;;;17.80;;
50555;SDS011;36508;52.512;13.450;2024-03-22T07:49:11;20.57;;;18.30;;
50555;SDS011;36508;52.512;13.450;2024-03-22T07:51:39;18.83;;;16.83;;
50555;SDS011;36508;52.512;13.450;2024-03-22T07:54:05;17.00;;;15.20;;
50555;SDS011;36508;52.512;13.450;2024-03-22T07:56:31;20.27;;;17.63;;
50555;SDS011;36508;52.512;13.450;2024-03-22T07:58:57;19.53;;;17.47;;
50555;SDS011;36508;52.512;13.450;2024-03-22T08:03:53;24.67;;;20.43;;
50555;SDS011;36508;52.512;13.450;2024-03-22T08:06:19;19.93;;;17.87;;
50555;SDS011;36508;52.512;13.450;2024-03-22T08:08:45;24.13;;;20.47;;
50555;SDS011;36508;52.512;13.450;2024-03-22T08:11:10;20.03;;;18.00;;
50555;SDS011;36508;52.512;13.450;2024-03-22T08:13:36;21.30;;;19.10;;
50555;SDS011;36508;52.512;13.450;2024-03-22T08:16:02;21.00;;;17.53;;
50555;SDS011;36508;52.512;13.450;2024-03-22T08:18:28;19.33;;;17.43;;
50555;SDS011;36508;52.512;13.450;2024-03-22T08:20:54;21.83;;;18.70;;
50555;SDS011;36508;52.512;13.450;2024-03-22T08:23:19;21.97;;;19.10;;
50555;SDS011;36508;52.512;13.450;2024-03-22T08:25:47;22.60;;;20.27;;
50555;SDS011;36508;52.512;13.450;2024-03-22T08:28:13;20.63;;;18.50;;
50555;SDS011;36508;52.512;13.450;2024-03-22T08:30:39;20.27;;;17.60;;
50555;SDS011;36508;52.512;13.450;2024-03-22T08:33:04;24.67;;;21.50;;
50555;SDS011;36508;52.512;13.450;2024-03-22T08:35:30;23.17;;;20.70;;
50555;SDS011;36508;52.512;13.450;2024-03-22T08:37:56;23.97;;;21.57;;
50555;SDS011;36508;52.512;13.450;2024-03-22T08:40:22;22.30;;;19.83;;
50555;SDS011;36508;52.512;13.450;2024-03-22T08:42:48;22.10;;;19.90;;
50555;SDS011;36508;52.512;13.450;2024-03-22T08:45:13;24.43;;;18.47;;
50555;SDS011;36508;52.512;13.450;2024-03-22T08:47:41;21.43;;;18.80;;
50555;SDS011;36508;52.512;13.450;2024-03-22T08:50:07;25.93;;;21.00;;
50555;SDS011;36508;52.512;13.450;2024-03-22T08:52:33;22.57;;;20.27;;
50555;SDS011;36508;52.512;13.450;2024-03-22T08:55:00;22.60;;;20.20;;
50555;SDS011;36508;52.512;13.450;2024-03-22T08:57:26;26.47;;;20.83;;
50555;SDS011;36508;52.512;13.450;2024-03-22T08:59:51;23.23;;;20.13;;
50555;SDS011;36508;52.512;13.450;2024-03-22T09:02:17;22.30;;;19.83;;
50555;SDS011;36508;52.512;13.450;2024-03-22T09:04:42;23.13;;;20.67;;
50555;SDS011;36508;52.512;13.450;2024-03-22T09:07:08;22.13;;;19.03;;
50555;SDS011;36508;52.512;13.450;2024-03-22T09:09:33;23.17;;;20.80;;
50555;SDS011;36508;52.512;13.450;2024-03-22T09:11:59;19.63;;;17.77;;
50555;SDS011;36508;52.512;13.450;2024-03-22T09:14:25;22.00;;;19.10;;
50555;SDS011;36508;52.512;13.450;2024-03-22T09:16:50;18.53;;;16.63;;
50555;SDS011;36508;52.512;13.450;2024-03-22T09:19:16;27.97;;;19.70;;
50555;SDS011;36508;52.512;13.450;2024-03-22T09:21:42;21.80;;;19.60;;
50555;SDS011;36508;52.512;13.450;2024-03-22T09:24:07;22.80;;;20.43;;
50555;SDS011;36508;52.512;13.450;2024-03-22T09:26:35;22.13;;;20.00;;
50555;SDS011;36508;52.512;13.450;2024-03-22T09:29:00;23.07;;;19.17;;
50555;SDS011;36508;52.512;13.450;2024-03-22T09:31:26;20.13;;;18.13;;
50555;SDS011;36508;52.512;13.450;2024-03-22T09:33:52;21.33;;;18.30;;
50555;SDS011;36508;52.512;13.450;2024-03-22T09:36:18;20.60;;;18.23;;
50555;SDS011;36508;52.512;13.450;2024-03-22T09:38:43;20.27;;;18.27;;
50555;SDS011;36508;52.512;13.450;2024-03-22T09:41:09;20.80;;;18.60;;
50555;SDS011;36508;52.512;13.450;2024-03-22T09:43:35;21.13;;;17.80;;
50555;SDS011;36508;52.512;13.450;2024-03-22T09:46:03;22.93;;;19.10;;
50555;SDS011;36508;52.512;13.450;2024-03-22T09:48:30;19.47;;;17.57;;
50555;SDS011;36508;52.512;13.450;2024-03-22T09:50:58;22.20;;;19.00;;
50555;SDS011;36508;52.512;13.450;2024-03-22T09:53:25;20.33;;;18.20;;
50555;SDS011;36508;52.512;13.450;2024-03-22T09:55:54;19.17;;;17.20;;
50555;SDS011;36508;52.512;13.450;2024-03-22T09:58:24;23.53;;;19.00;;
50555;SDS011;36508;52.512;13.450;2024-03-22T10:00:50;21.70;;;17.53;;
50555;SDS011;36508;52.512;13.450;2024-03-22T10:03:15;21.90;;;19.63;;
50555;SDS011;36508;52.512;13.450;2024-03-22T10:05:41;19.80;;;17.80;;
50555;SDS011;36508;52.512;13.450;2024-03-22T10:08:06;19.17;;;17.23;;
50555;SDS011;36508;52.512;13.450;2024-03-22T10:10:32;19.87;;;17.83;;
50555;SDS011;36508;52.512;13.450;2024-03-22T10:13:02;18.67;;;16.80;;
50555;SDS011;36508;52.512;13.450;2024-03-22T10:15:29;20.70;;;17.93;;
50555;SDS011;36508;52.512;13.450;2024-03-22T10:17:56;18.00;;;16.23;;
50555;SDS011;36508;52.512;13.450;2024-03-22T10:20:22;18.30;;;16.60;;
50555;SDS011;36508;52.512;13.450;2024-03-22T10:22:48;17.20;;;15.40;;
50555;SDS011;36508;52.512;13.450;2024-03-22T10:25:14;18.77;;;16.70;;
50555;SDS011;36508;52.512;13.450;2024-03-22T10:27:40;19.33;;;16.07;;
50555;SDS011;36508;52.512;13.450;2024-03-22T10:30:08;16.60;;;14.57;;
50555;SDS011;36508;52.512;13.450;2024-03-22T10:32:37;19.10;;;17.27;;
50555;SDS011;36508;52.512;13.450;2024-03-22T10:35:03;20.20;;;18.07;;
50555;SDS011;36508;52.512;13.450;2024-03-22T10:37:32;20.93;;;14.63;;
50555;SDS011;36508;52.512;13.450;2024-03-22T10:39:57;20.30;;;18.10;;
50555;SDS011;36508;52.512;13.450;2024-03-22T10:42:26;18.30;;;16.53;;
50555;SDS011;36508;52.512;13.450;2024-03-22T10:44:52;22.87;;;19.20;;
50555;SDS011;36508;52.512;13.450;2024-03-22T10:47:17;19.80;;;17.90;;
50555;SDS011;36508;52.512;13.450;2024-03-22T10:49:47;17.00;;;15.40;;
50555;SDS011;36508;52.512;13.450;2024-03-22T10:52:15;18.30;;;16.50;;
50555;SDS011;36508;52.512;13.450;2024-03-22T10:54:43;19.93;;;18.07;;
50555;SDS011;36508;52.512;13.450;2024-03-22T10:57:11;18.07;;;16.37;;
50555;SDS011;36508;52.512;13.450;2024-03-22T10:59:38;20.93;;;18.93;;
50555;SDS011;36508;52.512;13.450;2024-03-22T11:02:06;17.60;;;15.80;;
50555;SDS011;36508;52.512;13.450;2024-03-22T11:04:35;19.70;;;16.13;;
50555;SDS011;36508;52.512;13.450;2024-03-22T11:07:01;18.67;;;17.00;;
50555;SDS011;36508;52.512;13.450;2024-03-22T11:09:28;24.00;;;17.77;;
50555;SDS011;36508;52.512;13.450;2024-03-22T11:11:55;17.33;;;15.63;;
50555;SDS011;36508;52.512;13.450;2024-03-22T11:14:25;19.27;;;17.47;;
50555;SDS011;36508;52.512;13.450;2024-03-22T11:16:51;17.80;;;15.93;;
50555;SDS011;36508;52.512;13.450;2024-03-22T11:50:07;15.87;;;13.53;;
50555;SDS011;36508;52.512;13.450;2024-03-22T11:52:34;17.63;;;15.30;;
50555;SDS011;36508;52.512;13.450;2024-03-22T11:55:00;16.63;;;14.87;;
50555;SDS011;36508;52.512;13.450;2024-03-22T11:57:26;16.43;;;14.70;;
50555;SDS011;36508;52.512;13.450;2024-03-22T11:59:58;17.07;;;15.03;;
50555;SDS011;36508;52.512;13.450;2024-03-22T12:02:25;21.63;;;16.03;;
50555;SDS011;36508;52.512;13.450;2024-03-22T12:04:50;15.60;;;13.43;;
50555;SDS011;36508;52.512;13.450;2024-03-22T12:07:16;20.17;;;17.37;;
50555;SDS011;36508;52.512;13.450;2024-03-22T12:09:43;18.20;;;15.90;;
50555;SDS011;36508;52.512;13.450;2024-03-22T12:12:10;17.40;;;15.63;;
50555;SDS011;36508;52.512;13.450;2024-03-22T12:14:37;20.20;;;16.57;;
50555;SDS011;36508;52.512;13.450;2024-03-22T12:17:03;20.83;;;16.90;;
50555;SDS011;36508;52.512;13.450;2024-03-22T12:19:30;21.10;;;15.70;;
50555;SDS011;36508;52.512;13.450;2024-03-22T12:21:55;17.97;;;16.07;;
50555;SDS011;36508;52.512;13.450;2024-03-22T12:24:21;16.93;;;15.17;;
50555;SDS011;36508;52.512;13.450;2024-03-22T12:26:48;17.67;;;15.97;;
50555;SDS011;36508;52.512;13.450;2024-03-22T12:29:15;18.30;;;15.40;;
50555;SDS011;36508;52.512;13.450;2024-03-22T12:31:41;19.70;;;17.63;;
50555;SDS011;36508;52.512;13.450;2024-03-22T12:34:07;23.47;;;18.77;;
50555;SDS011;36508;52.512;13.450;2024-03-22T12:36:33;19.80;;;17.70;;
50555;SDS011;36508;52.512;13.450;2024-03-22T12:38:58;22.80;;;18.17;;
50555;SDS011;36508;52.512;13.450;2024-03-22T12:41:24;20.67;;;18.40;;
50555;SDS011;36508;52.512;13.450;2024-03-22T12:43:50;21.13;;;18.23;;
50555;SDS011;36508;52.512;13.450;2024-03-22T12:46:16;20.50;;;17.70;;
50555;SDS011;36508;52.512;13.450;2024-03-22T12:48:41;22.40;;;20.00;;
50555;SDS011;36508;52.512;13.450;2024-03-22T12:51:07;21.57;;;19.60;;
50555;SDS011;36508;52.512;13.450;2024-03-22T12:53:33;24.37;;;20.47;;
50555;SDS011;36508;52.512;13.450;2024-03-22T12:55:58;19.60;;;16.90;;
50555;SDS011;36508;52.512;13.450;2024-03-22T12:58:24;23.10;;;17.13;;
50555;SDS011;36508;52.512;13.450;2024-03-22T13:00:49;21.50;;;17.20;;
50555;SDS011;36508;52.512;13.450;2024-03-22T13:03:15;19.87;;;16.13;;
50555;SDS011;36508;52.512;13.450;2024-03-22T13:05:41;21.50;;;19.10;;
50555;SDS011;36508;52.512;13.450;2024-03-22T13:08:07;26.30;;;18.73;;
50555;SDS011;36508;52.512;13.450;2024-03-22T13:10:32;19.23;;;17.10;;
50555;SDS011;36508;52.512;13.450;2024-03-22T13:15:29;20.77;;;18.60;;
50555;SDS011;36508;52.512;13.450;2024-03-22T13:17:57;22.43;;;18.30;;
50555;SDS011;36508;52.512;13.450;2024-03-22T13:20:22;22.40;;;20.00;;
50555;SDS011;36508;52.512;13.450;2024-03-22T13:22:48;23.10;;;20.50;;
50555;SDS011;36508;52.512;13.450;2024-03-22T13:25:14;19.80;;;17.90;;
50555;SDS011;36508;52.512;13.450;2024-03-22T13:27:41;21.60;;;15.83;;
50555;SDS011;36508;52.512;13.450;2024-03-22T13:30:06;17.10;;;15.40;;
50555;SDS011;36508;52.512;13.450;2024-03-22T13:32:37;18.10;;;13.80;;
50555;SDS011;36508;52.512;13.450;2024-03-22T13:35:03;16.40;;;14.60;;
50555;SDS011;36508;52.512;13.450;2024-03-22T13:37:30;16.77;;;15.20;;
50555;SDS011;36508;52.512;13.450;2024-03-22T13:39:56;17.77;;;13.73;;
50555;SDS011;36508;52.512;13.450;2024-03-22T13:42:21;14.53;;;13.13;;
50555;SDS011;36508;52.512;13.450;2024-03-22T13:44:47;15.93;;;13.53;;
50555;SDS011;36508;52.512;13.450;2024-03-22T13:47:12;15.37;;;12.83;;
50555;SDS011;36508;52.512;13.450;2024-03-22T13:49:39;13.83;;;12.37;;
50555;SDS011;36508;52.512;13.450;2024-03-22T13:52:06;14.70;;;12.90;;
50555;SDS011;36508;52.512;13.450;2024-03-22T13:54:32;13.47;;;11.93;;
50555;SDS011;36508;52.512;13.450;2024-03-22T13:56:58;13.50;;;11.97;;
50555;SDS011;36508;52.512;13.450;2024-03-22T13:59:29;14.50;;;11.80;;
50555;SDS011;36508;52.512;13.450;2024-03-22T14:01:55;13.40;;;12.07;;
50555;SDS011;36508;52.512;13.450;2024-03-22T14:04:22;15.53;;;11.20;;
50555;SDS011;36508;52.512;13.450;2024-03-22T14:06:48;16.37;;;12.30;;
50555;SDS011;36508;52.512;13.450;2024-03-22T14:09:14;16.27;;;14.70;;
50555;SDS011;36508;52.512;13.450;2024-03-22T14:11:40;17.73;;;15.50;;
50555;SDS011;36508;52.512;13.450;2024-03-22T14:14:08;18.40;;;15.93;;
50555;SDS011;36508;52.512;13.450;2024-03-22T14:16:36;19.20;;;17.10;;
50555;SDS011;36508;52.512;13.450;2024-03-22T14:19:03;17.87;;;16.07;;
50555;SDS011;36508;52.512;13.450;2024-03-22T14:21:28;18.33;;;16.50;;
50555;SDS011;36508;52.512;13.450;2024-03-22T14:23:54;19.83;;;15.87;;
50555;SDS011;36508;52.512;13.450;2024-03-22T14:26:20;20.77;;;18.67;;
50555;SDS011;36508;52.512;13.450;2024-03-22T14:28:46;20.13;;;18.10;;
50555;SDS011;36508;52.512;13.450;2024-03-22T14:31:13;22.93;;;19.30;;
50555;SDS011;36508;52.512;13.450;2024-03-22T14:33:39;24.03;;;20.63;;
50555;SDS011;36508;52.512;13.450;2024-03-22T14:36:06;19.90;;;17.73;;
50555;SDS011;36508;52.512;13.450;2024-03-22T14:38:32;20.93;;;18.83;;
50555;SDS011;36508;52.512;13.450;2024-03-22T14:40:58;19.80;;;17.77;;
50555;SDS011;36508;52.512;13.450;2024-03-22T14:43:25;25.57;;;19.17;;